sensor_id;sensor_type;location;lat;lon;timestamp;temperature;humidity
67572;SHT31;54397;47.506;19.158;2022-09-06T00:01:26;19.51;62.86
67572;SHT31;54397;47.506;19.158;2022-09-06T00:04:50;19.45;63.07
67572;SHT31;54397;47.506;19.158;2022-09-06T00:08:11;19.55;62.71
67572;SHT31;54397;47.506;19.158;2022-09-06T00:11:35;19.62;62.48
67572;SHT31;54397;47.506;19.158;2022-09-06T00:14:57;19.59;61.77
67572;SHT31;54397;47.506;19.158;2022-09-06T00:18:19;19.57;62.46
67572;SHT31;54397;47.506;19.158;2022-09-06T00:21:40;19.61;62.79
67572;SHT31;54397;47.506;19.158;2022-09-06T00:25:04;19.64;62.92
67572;SHT31;54397;47.506;19.158;2022-09-06T00:28:26;19.57;63.00
67572;SHT31;54397;47.506;19.158;2022-09-06T00:31:52;19.55;63.49
67572;SHT31;54397;47.506;19.158;2022-09-06T00:35:14;19.54;63.76
67572;SHT31;54397;47.506;19.158;2022-09-06T00:38:37;19.57;63.70
67572;SHT31;54397;47.506;19.158;2022-09-06T00:41:59;19.26;64.85
67572;SHT31;54397;47.506;19.158;2022-09-06T00:45:24;19.02;65.44
67572;SHT31;54397;47.506;19.158;2022-09-06T00:48:49;19.13;65.48
67572;SHT31;54397;47.506;19.158;2022-09-06T00:52:14;19.17;65.42
67572;SHT31;54397;47.506;19.158;2022-09-06T00:55:36;19.32;64.95
67572;SHT31;54397;47.506;19.158;2022-09-06T00:58:59;19.24;65.37
67572;SHT31;54397;47.506;19.158;2022-09-06T01:02:23;19.35;65.17
67572;SHT31;54397;47.506;19.158;2022-09-06T01:16:53;19.38;65.11
67572;SHT31;54397;47.506;19.158;2022-09-06T01:31:51;19.27;65.46
67572;SHT31;54397;47.506;19.158;2022-09-06T01:35:29;19.20;66.04
67572;SHT31;54397;47.506;19.158;2022-09-06T01:38:54;19.21;66.32
67572;SHT31;54397;47.506;19.158;2022-09-06T01:42:22;19.16;66.33
67572;SHT31;54397;47.506;19.158;2022-09-06T01:46:19;19.27;65.99
67572;SHT31;54397;47.506;19.158;2022-09-06T01:49:48;19.23;66.06
67572;SHT31;54397;47.506;19.158;2022-09-06T02:01:26;18.96;66.69
67572;SHT31;54397;47.506;19.158;2022-09-06T02:04:52;19.11;66.61
67572;SHT31;54397;47.506;19.158;2022-09-06T02:08:24;19.31;65.48
67572;SHT31;54397;47.506;19.158;2022-09-06T02:11:57;19.30;65.79
67572;SHT31;54397;47.506;19.158;2022-09-06T02:15:23;19.07;67.28
67572;SHT31;54397;47.506;19.158;2022-09-06T02:18:51;19.14;66.43
67572;SHT31;54397;47.506;19.158;2022-09-06T02:22:16;19.30;66.14
67572;SHT31;54397;47.506;19.158;2022-09-06T02:25:43;18.96;67.09
67572;SHT31;54397;47.506;19.158;2022-09-06T02:29:10;19.00;67.61
67572;SHT31;54397;47.506;19.158;2022-09-06T02:32:38;18.97;67.47
67572;SHT31;54397;47.506;19.158;2022-09-06T02:36:05;19.02;65.74
67572;SHT31;54397;47.506;19.158;2022-09-06T02:39:28;19.03;64.74
67572;SHT31;54397;47.506;19.158;2022-09-06T02:42:52;19.04;63.80
67572;SHT31;54397;47.506;19.158;2022-09-06T02:46:17;18.99;63.87
67572;SHT31;54397;47.506;19.158;2022-09-06T02:49:41;19.06;63.60
67572;SHT31;54397;47.506;19.158;2022-09-06T02:53:07;19.02;61.95
67572;SHT31;54397;47.506;19.158;2022-09-06T02:56:34;19.06;62.08
67572;SHT31;54397;47.506;19.158;2022-09-06T02:59:57;19.04;62.49
67572;SHT31;54397;47.506;19.158;2022-09-06T03:03:19;18.89;62.52
67572;SHT31;54397;47.506;19.158;2022-09-06T03:06:43;18.70;63.80
67572;SHT31;54397;47.506;19.158;2022-09-06T03:10:05;18.63;64.11
67572;SHT31;54397;47.506;19.158;2022-09-06T03:13:29;18.63;64.40
67572;SHT31;54397;47.506;19.158;2022-09-06T03:16:51;18.56;64.09
67572;SHT31;54397;47.506;19.158;2022-09-06T03:20:12;18.61;63.93
67572;SHT31;54397;47.506;19.158;2022-09-06T03:23:34;18.55;63.59
67572;SHT31;54397;47.506;19.158;2022-09-06T03:26:58;18.58;63.87
67572;SHT31;54397;47.506;19.158;2022-09-06T03:30:20;18.52;64.12
67572;SHT31;54397;47.506;19.158;2022-09-06T03:33:41;18.49;64.30
67572;SHT31;54397;47.506;19.158;2022-09-06T03:37:03;18.45;63.95
67572;SHT31;54397;47.506;19.158;2022-09-06T03:40:28;18.42;64.37
67572;SHT31;54397;47.506;19.158;2022-09-06T03:43:52;18.40;63.57
67572;SHT31;54397;47.506;19.158;2022-09-06T03:47:13;18.44;63.22
67572;SHT31;54397;47.506;19.158;2022-09-06T03:50:47;18.42;63.08
67572;SHT31;54397;47.506;19.158;2022-09-06T03:54:09;18.38;62.99
67572;SHT31;54397;47.506;19.158;2022-09-06T03:57:30;18.28;64.15
67572;SHT31;54397;47.506;19.158;2022-09-06T04:01:06;18.35;63.73
67572;SHT31;54397;47.506;19.158;2022-09-06T04:04:30;18.45;64.05
67572;SHT31;54397;47.506;19.158;2022-09-06T04:07:54;18.44;64.51
67572;SHT31;54397;47.506;19.158;2022-09-06T04:11:16;18.42;64.68
67572;SHT31;54397;47.506;19.158;2022-09-06T04:14:40;18.40;64.89
67572;SHT31;54397;47.506;19.158;2022-09-06T04:18:02;18.48;65.01
67572;SHT31;54397;47.506;19.158;2022-09-06T04:21:31;18.51;64.00
67572;SHT31;54397;47.506;19.158;2022-09-06T04:24:53;18.30;63.74
67572;SHT31;54397;47.506;19.158;2022-09-06T04:28:16;18.31;64.35
67572;SHT31;54397;47.506;19.158;2022-09-06T04:31:38;18.42;64.07
67572;SHT31;54397;47.506;19.158;2022-09-06T04:35:00;18.52;63.84
67572;SHT31;54397;47.506;19.158;2022-09-06T04:38:23;18.44;64.39
67572;SHT31;54397;47.506;19.158;2022-09-06T04:41:44;18.51;63.83
67572;SHT31;54397;47.506;19.158;2022-09-06T04:45:06;18.51;63.41
67572;SHT31;54397;47.506;19.158;2022-09-06T04:48:28;18.56;63.45
67572;SHT31;54397;47.506;19.158;2022-09-06T04:51:52;18.58;63.40
67572;SHT31;54397;47.506;19.158;2022-09-06T04:55:19;18.48;63.67
67572;SHT31;54397;47.506;19.158;2022-09-06T04:58:44;18.58;63.61
67572;SHT31;54397;47.506;19.158;2022-09-06T05:02:08;18.70;63.03
67572;SHT31;54397;47.506;19.158;2022-09-06T05:05:32;18.82;62.94
67572;SHT31;54397;47.506;19.158;2022-09-06T05:08:54;18.85;62.07
67572;SHT31;54397;47.506;19.158;2022-09-06T05:12:15;18.93;61.56
67572;SHT31;54397;47.506;19.158;2022-09-06T05:15:37;18.90;61.86
67572;SHT31;54397;47.506;19.158;2022-09-06T05:18:59;18.77;61.49
67572;SHT31;54397;47.506;19.158;2022-09-06T05:22:20;19.45;67.59
67572;SHT31;54397;47.506;19.158;2022-09-06T05:25:44;20.03;61.93
67572;SHT31;54397;47.506;19.158;2022-09-06T05:29:06;20.20;58.76
67572;SHT31;54397;47.506;19.158;2022-09-06T05:32:28;20.37;59.67
67572;SHT31;54397;47.506;19.158;2022-09-06T05:35:55;20.48;54.77
67572;SHT31;54397;47.506;19.158;2022-09-06T05:39:19;20.30;55.73
67572;SHT31;54397;47.506;19.158;2022-09-06T05:42:44;20.16;57.77
67572;SHT31;54397;47.506;19.158;2022-09-06T05:46:06;19.95;59.98
67572;SHT31;54397;47.506;19.158;2022-09-06T05:49:33;19.71;55.42
67572;SHT31;54397;47.506;19.158;2022-09-06T05:52:55;20.02;54.98
67572;SHT31;54397;47.506;19.158;2022-09-06T05:56:16;19.93;54.82
67572;SHT31;54397;47.506;19.158;2022-09-06T05:59:41;19.62;54.25
67572;SHT31;54397;47.506;19.158;2022-09-06T06:03:05;20.12;57.24
67572;SHT31;54397;47.506;19.158;2022-09-06T06:06:29;19.87;53.04
67572;SHT31;54397;47.506;19.158;2022-09-06T06:09:51;19.90;54.23
67572;SHT31;54397;47.506;19.158;2022-09-06T06:13:13;20.22;54.38
67572;SHT31;54397;47.506;19.158;2022-09-06T06:16:36;20.45;53.70
67572;SHT31;54397;47.506;19.158;2022-09-06T06:19:58;20.58;51.27
67572;SHT31;54397;47.506;19.158;2022-09-06T06:23:19;20.52;51.99
67572;SHT31;54397;47.506;19.158;2022-09-06T06:26:41;20.57;54.64
67572;SHT31;54397;47.506;19.158;2022-09-06T06:30:06;21.15;53.08
67572;SHT31;54397;47.506;19.158;2022-09-06T06:33:27;21.58;46.40
67572;SHT31;54397;47.506;19.158;2022-09-06T06:36:49;21.84;49.64
67572;SHT31;54397;47.506;19.158;2022-09-06T06:40:10;22.15;46.06
67572;SHT31;54397;47.506;19.158;2022-09-06T06:43:33;22.35;44.76
67572;SHT31;54397;47.506;19.158;2022-09-06T06:46:58;22.16;44.67
67572;SHT31;54397;47.506;19.158;2022-09-06T06:50:24;22.55;45.42
67572;SHT31;54397;47.506;19.158;2022-09-06T06:53:47;22.77;46.97
67572;SHT31;54397;47.506;19.158;2022-09-06T06:57:10;23.01;44.77
67572;SHT31;54397;47.506;19.158;2022-09-06T07:00:33;23.06;45.66
67572;SHT31;54397;47.506;19.158;2022-09-06T07:03:59;22.91;43.88
67572;SHT31;54397;47.506;19.158;2022-09-06T07:07:23;23.07;46.89
67572;SHT31;54397;47.506;19.158;2022-09-06T07:10:53;23.53;45.95
67572;SHT31;54397;47.506;19.158;2022-09-06T07:14:17;23.83;43.17
67572;SHT31;54397;47.506;19.158;2022-09-06T07:17:39;23.51;43.15
67572;SHT31;54397;47.506;19.158;2022-09-06T07:21:17;23.70;43.14
67572;SHT31;54397;47.506;19.158;2022-09-06T07:24:54;24.10;43.06
67572;SHT31;54397;47.506;19.158;2022-09-06T07:28:18;23.92;41.30
67572;SHT31;54397;47.506;19.158;2022-09-06T07:31:42;23.72;44.02
67572;SHT31;54397;47.506;19.158;2022-09-06T07:35:26;23.82;43.70
67572;SHT31;54397;47.506;19.158;2022-09-06T07:38:50;24.20;43.35
67572;SHT31;54397;47.506;19.158;2022-09-06T07:42:14;24.51;41.99
67572;SHT31;54397;47.506;19.158;2022-09-06T07:45:38;23.41;43.91
67572;SHT31;54397;47.506;19.158;2022-09-06T07:49:03;23.76;44.55
67572;SHT31;54397;47.506;19.158;2022-09-06T07:52:25;24.28;45.14
67572;SHT31;54397;47.506;19.158;2022-09-06T07:56:09;24.24;42.25
67572;SHT31;54397;47.506;19.158;2022-09-06T07:59:31;24.65;42.08
67572;SHT31;54397;47.506;19.158;2022-09-06T08:02:55;24.80;41.73
67572;SHT31;54397;47.506;19.158;2022-09-06T08:06:17;24.83;42.23
67572;SHT31;54397;47.506;19.158;2022-09-06T08:09:38;25.16;41.55
67572;SHT31;54397;47.506;19.158;2022-09-06T08:13:00;24.75;41.68
67572;SHT31;54397;47.506;19.158;2022-09-06T08:16:23;24.62;43.20
67572;SHT31;54397;47.506;19.158;2022-09-06T08:19:45;24.54;42.27
67572;SHT31;54397;47.506;19.158;2022-09-06T08:23:12;23.99;43.63
67572;SHT31;54397;47.506;19.158;2022-09-06T08:26:38;23.63;45.43
67572;SHT31;54397;47.506;19.158;2022-09-06T08:30:02;24.13;44.12
67572;SHT31;54397;47.506;19.158;2022-09-06T08:33:25;24.34;44.10
67572;SHT31;54397;47.506;19.158;2022-09-06T08:36:47;24.35;44.77
67572;SHT31;54397;47.506;19.158;2022-09-06T08:40:09;24.27;44.87
67572;SHT31;54397;47.506;19.158;2022-09-06T08:43:35;24.30;45.29
67572;SHT31;54397;47.506;19.158;2022-09-06T08:47:02;24.61;44.57
67572;SHT31;54397;47.506;19.158;2022-09-06T08:50:30;24.76;44.03
67572;SHT31;54397;47.506;19.158;2022-09-06T08:53:58;24.41;44.31
67572;SHT31;54397;47.506;19.158;2022-09-06T09:01:28;24.14;45.08
67572;SHT31;54397;47.506;19.158;2022-09-06T09:04:57;24.17;45.53
67572;SHT31;54397;47.506;19.158;2022-09-06T09:11:49;25.05;43.80
67572;SHT31;54397;47.506;19.158;2022-09-06T09:15:14;25.64;42.69
67572;SHT31;54397;47.506;19.158;2022-09-06T09:18:40;25.72;43.28
67572;SHT31;54397;47.506;19.158;2022-09-06T09:22:04;25.71;42.24
67572;SHT31;54397;47.506;19.158;2022-09-06T09:25:27;25.31;44.25
67572;SHT31;54397;47.506;19.158;2022-09-06T09:29:13;25.77;44.45
67572;SHT31;54397;47.506;19.158;2022-09-06T09:32:45;25.57;44.07
67572;SHT31;54397;47.506;19.158;2022-09-06T09:36:10;25.61;43.11
67572;SHT31;54397;47.506;19.158;2022-09-06T09:39:37;25.44;44.10
67572;SHT31;54397;47.506;19.158;2022-09-06T09:46:43;26.13;42.11
67572;SHT31;54397;47.506;19.158;2022-09-06T09:50:26;26.50;42.36
67572;SHT31;54397;47.506;19.158;2022-09-06T09:53:52;27.38;40.58
67572;SHT31;54397;47.506;19.158;2022-09-06T09:57:22;27.19;41.31
67572;SHT31;54397;47.506;19.158;2022-09-06T10:00:45;27.06;41.59
67572;SHT31;54397;47.506;19.158;2022-09-06T10:04:19;26.90;41.67
67572;SHT31;54397;47.506;19.158;2022-09-06T10:08:09;26.80;41.60
67572;SHT31;54397;47.506;19.158;2022-09-06T10:11:39;27.41;41.72
67572;SHT31;54397;47.506;19.158;2022-09-06T10:15:31;26.87;40.95
67572;SHT31;54397;47.506;19.158;2022-09-06T10:18:55;26.65;42.84
67572;SHT31;54397;47.506;19.158;2022-09-06T10:22:26;27.56;40.77
67572;SHT31;54397;47.506;19.158;2022-09-06T10:29:44;27.38;41.61
67572;SHT31;54397;47.506;19.158;2022-09-06T10:33:20;28.59;40.08
67572;SHT31;54397;47.506;19.158;2022-09-06T10:47:37;28.77;38.73
67572;SHT31;54397;47.506;19.158;2022-09-06T10:52:04;27.67;40.33
67572;SHT31;54397;47.506;19.158;2022-09-06T10:55:19;29.03;40.21
67572;SHT31;54397;47.506;19.158;2022-09-06T11:02:58;29.18;37.68
67572;SHT31;54397;47.506;19.158;2022-09-06T11:06:44;29.27;38.80
67572;SHT31;54397;47.506;19.158;2022-09-06T11:13:31;29.04;39.36
67572;SHT31;54397;47.506;19.158;2022-09-06T11:17:01;28.56;40.06
67572;SHT31;54397;47.506;19.158;2022-09-06T11:20:38;28.93;39.72
67572;SHT31;54397;47.506;19.158;2022-09-06T11:24:15;28.80;39.81
67572;SHT31;54397;47.506;19.158;2022-09-06T11:27:44;28.48;40.15
67572;SHT31;54397;47.506;19.158;2022-09-06T11:31:12;28.37;41.47
67572;SHT31;54397;47.506;19.158;2022-09-06T11:35:02;28.48;40.40
67572;SHT31;54397;47.506;19.158;2022-09-06T11:38:27;27.97;40.94
67572;SHT31;54397;47.506;19.158;2022-09-06T11:41:51;27.89;42.03
67572;SHT31;54397;47.506;19.158;2022-09-06T11:48:49;28.21;43.48
67572;SHT31;54397;47.506;19.158;2022-09-06T11:56:34;28.31;41.29
67572;SHT31;54397;47.506;19.158;2022-09-06T12:00:03;28.62;41.51
67572;SHT31;54397;47.506;19.158;2022-09-06T12:07:23;28.76;39.70
67572;SHT31;54397;47.506;19.158;2022-09-06T12:10:54;29.38;39.55
67572;SHT31;54397;47.506;19.158;2022-09-06T12:14:33;29.69;36.69
67572;SHT31;54397;47.506;19.158;2022-09-06T12:17:58;29.58;37.08
67572;SHT31;54397;47.506;19.158;2022-09-06T12:28:25;29.48;37.73
67572;SHT31;54397;47.506;19.158;2022-09-06T12:31:55;29.06;37.76
67572;SHT31;54397;47.506;19.158;2022-09-06T12:35:23;29.32;38.55
67572;SHT31;54397;47.506;19.158;2022-09-06T12:39:09;29.02;38.77
67572;SHT31;54397;47.506;19.158;2022-09-06T12:42:36;29.42;38.46
67572;SHT31;54397;47.506;19.158;2022-09-06T12:45:58;29.37;36.26
67572;SHT31;54397;47.506;19.158;2022-09-06T12:49:28;29.20;35.56
67572;SHT31;54397;47.506;19.158;2022-09-06T12:52:58;29.32;36.43
67572;SHT31;54397;47.506;19.158;2022-09-06T12:56:30;29.32;36.72
67572;SHT31;54397;47.506;19.158;2022-09-06T12:59:56;28.79;37.08
67572;SHT31;54397;47.506;19.158;2022-09-06T13:06:48;28.99;36.99
67572;SHT31;54397;47.506;19.158;2022-09-06T13:10:13;28.82;35.92
67572;SHT31;54397;47.506;19.158;2022-09-06T13:13:36;28.66;36.23
67572;SHT31;54397;47.506;19.158;2022-09-06T13:17:07;28.99;36.28
67572;SHT31;54397;47.506;19.158;2022-09-06T13:20:29;29.13;35.21
67572;SHT31;54397;47.506;19.158;2022-09-06T13:23:53;28.83;36.75
67572;SHT31;54397;47.506;19.158;2022-09-06T13:27:34;28.86;35.98
67572;SHT31;54397;47.506;19.158;2022-09-06T13:34:29;28.84;35.83
67572;SHT31;54397;47.506;19.158;2022-09-06T13:41:54;28.25;37.11
67572;SHT31;54397;47.506;19.158;2022-09-06T13:45:27;27.84;37.74
67572;SHT31;54397;47.506;19.158;2022-09-06T13:48:52;27.74;38.99
67572;SHT31;54397;47.506;19.158;2022-09-06T13:52:14;27.57;38.83
67572;SHT31;54397;47.506;19.158;2022-09-06T13:55:36;27.49;38.97
67572;SHT31;54397;47.506;19.158;2022-09-06T13:58:58;27.39;38.75
67572;SHT31;54397;47.506;19.158;2022-09-06T14:02:21;27.41;38.96
67572;SHT31;54397;47.506;19.158;2022-09-06T14:05:45;27.41;39.72
67572;SHT31;54397;47.506;19.158;2022-09-06T14:09:07;27.29;40.15
67572;SHT31;54397;47.506;19.158;2022-09-06T14:12:31;27.12;40.65
67572;SHT31;54397;47.506;19.158;2022-09-06T14:15:57;27.06;41.25
67572;SHT31;54397;47.506;19.158;2022-09-06T14:19:20;27.04;40.95
67572;SHT31;54397;47.506;19.158;2022-09-06T14:22:41;26.97;41.54
67572;SHT31;54397;47.506;19.158;2022-09-06T14:26:05;26.92;41.79
67572;SHT31;54397;47.506;19.158;2022-09-06T14:29:27;26.84;41.95
67572;SHT31;54397;47.506;19.158;2022-09-06T14:32:51;26.80;41.85
67572;SHT31;54397;47.506;19.158;2022-09-06T14:36:15;26.78;42.27
67572;SHT31;54397;47.506;19.158;2022-09-06T14:39:37;26.83;42.22
67572;SHT31;54397;47.506;19.158;2022-09-06T14:42:58;26.73;42.42
67572;SHT31;54397;47.506;19.158;2022-09-06T14:46:21;26.74;42.19
67572;SHT31;54397;47.506;19.158;2022-09-06T14:49:46;26.68;42.39
67572;SHT31;54397;47.506;19.158;2022-09-06T14:53:08;26.64;42.22
67572;SHT31;54397;47.506;19.158;2022-09-06T14:56:49;26.68;42.86
67572;SHT31;54397;47.506;19.158;2022-09-06T15:00:11;26.61;43.10
67572;SHT31;54397;47.506;19.158;2022-09-06T15:03:36;26.58;43.38
67572;SHT31;54397;47.506;19.158;2022-09-06T15:06:58;26.56;43.72
67572;SHT31;54397;47.506;19.158;2022-09-06T15:10:20;26.46;44.20
67572;SHT31;54397;47.506;19.158;2022-09-06T15:13:44;26.39;44.40
67572;SHT31;54397;47.506;19.158;2022-09-06T15:17:05;26.35;44.27
67572;SHT31;54397;47.506;19.158;2022-09-06T15:20:29;26.29;44.52
67572;SHT31;54397;47.506;19.158;2022-09-06T15:23:51;26.28;44.68
67572;SHT31;54397;47.506;19.158;2022-09-06T15:27:13;26.23;44.72
67572;SHT31;54397;47.506;19.158;2022-09-06T15:30:37;26.18;45.12
67572;SHT31;54397;47.506;19.158;2022-09-06T15:34:00;26.01;46.08
67572;SHT31;54397;47.506;19.158;2022-09-06T15:37:25;25.88;46.45
67572;SHT31;54397;47.506;19.158;2022-09-06T15:40:47;25.55;50.28
67572;SHT31;54397;47.506;19.158;2022-09-06T15:44:14;24.92;54.06
67572;SHT31;54397;47.506;19.158;2022-09-06T15:47:37;23.96;59.41
67572;SHT31;54397;47.506;19.158;2022-09-06T15:51:01;23.49;63.29
67572;SHT31;54397;47.506;19.158;2022-09-06T15:54:23;23.42;61.62
67572;SHT31;54397;47.506;19.158;2022-09-06T15:58:03;23.55;61.03
67572;SHT31;54397;47.506;19.158;2022-09-06T16:01:26;23.62;61.47
67572;SHT31;54397;47.506;19.158;2022-09-06T16:04:47;23.63;62.74
67572;SHT31;54397;47.506;19.158;2022-09-06T16:08:09;23.46;63.92
67572;SHT31;54397;47.506;19.158;2022-09-06T16:11:31;23.34;63.04
67572;SHT31;54397;47.506;19.158;2022-09-06T16:14:59;23.17;64.57
67572;SHT31;54397;47.506;19.158;2022-09-06T16:18:20;22.93;65.85
67572;SHT31;54397;47.506;19.158;2022-09-06T16:21:42;23.12;65.11
67572;SHT31;54397;47.506;19.158;2022-09-06T16:25:05;23.42;63.64
67572;SHT31;54397;47.506;19.158;2022-09-06T16:28:30;23.59;60.70
67572;SHT31;54397;47.506;19.158;2022-09-06T16:31:52;23.79;60.39
67572;SHT31;54397;47.506;19.158;2022-09-06T16:35:20;23.90;58.73
67572;SHT31;54397;47.506;19.158;2022-09-06T16:38:41;23.99;58.70
67572;SHT31;54397;47.506;19.158;2022-09-06T16:42:04;24.04;58.05
67572;SHT31;54397;47.506;19.158;2022-09-06T16:45:26;24.04;58.13
67572;SHT31;54397;47.506;19.158;2022-09-06T16:48:58;24.04;57.96
67572;SHT31;54397;47.506;19.158;2022-09-06T16:52:24;24.09;58.26
67572;SHT31;54397;47.506;19.158;2022-09-06T16:55:49;24.03;58.81
67572;SHT31;54397;47.506;19.158;2022-09-06T16:59:11;23.99;59.24
67572;SHT31;54397;47.506;19.158;2022-09-06T17:02:35;23.92;59.70
67572;SHT31;54397;47.506;19.158;2022-09-06T17:05:57;23.87;59.70
67572;SHT31;54397;47.506;19.158;2022-09-06T17:09:18;23.58;60.93
67572;SHT31;54397;47.506;19.158;2022-09-06T17:12:42;23.32;61.59
67572;SHT31;54397;47.506;19.158;2022-09-06T17:16:05;23.28;61.45
67572;SHT31;54397;47.506;19.158;2022-09-06T17:19:47;23.37;61.34
67572;SHT31;54397;47.506;19.158;2022-09-06T17:23:11;23.37;61.16
67572;SHT31;54397;47.506;19.158;2022-09-06T17:26:36;23.25;61.74
67572;SHT31;54397;47.506;19.158;2022-09-06T17:30:00;23.11;62.14
67572;SHT31;54397;47.506;19.158;2022-09-06T17:33:29;22.98;62.54
67572;SHT31;54397;47.506;19.158;2022-09-06T17:36:59;23.15;62.41
67572;SHT31;54397;47.506;19.158;2022-09-06T17:40:20;23.29;62.11
67572;SHT31;54397;47.506;19.158;2022-09-06T17:43:42;23.38;61.66
67572;SHT31;54397;47.506;19.158;2022-09-06T17:47:06;23.44;61.95
67572;SHT31;54397;47.506;19.158;2022-09-06T17:50:33;23.01;63.73
67572;SHT31;54397;47.506;19.158;2022-09-06T17:53:56;22.94;64.11
67572;SHT31;54397;47.506;19.158;2022-09-06T17:57:20;22.77;64.46
67572;SHT31;54397;47.506;19.158;2022-09-06T18:00:48;22.60;64.96
67572;SHT31;54397;47.506;19.158;2022-09-06T18:04:11;22.31;66.52
67572;SHT31;54397;47.506;19.158;2022-09-06T18:07:33;22.22;67.81
67572;SHT31;54397;47.506;19.158;2022-09-06T18:10:57;22.02;68.84
67572;SHT31;54397;47.506;19.158;2022-09-06T18:14:21;21.98;68.75
67572;SHT31;54397;47.506;19.158;2022-09-06T18:17:43;22.15;66.82
67572;SHT31;54397;47.506;19.158;2022-09-06T18:21:05;22.28;66.53
67572;SHT31;54397;47.506;19.158;2022-09-06T18:24:27;22.38;66.09
67572;SHT31;54397;47.506;19.158;2022-09-06T18:27:49;22.36;66.42
67572;SHT31;54397;47.506;19.158;2022-09-06T18:31:16;22.39;66.27
67572;SHT31;54397;47.506;19.158;2022-09-06T18:34:38;22.36;66.58
67572;SHT31;54397;47.506;19.158;2022-09-06T18:38:00;22.40;65.83
67572;SHT31;54397;47.506;19.158;2022-09-06T18:41:24;22.39;65.80
67572;SHT31;54397;47.506;19.158;2022-09-06T18:45:05;22.25;67.29
67572;SHT31;54397;47.506;19.158;2022-09-06T18:48:27;22.11;67.68
67572;SHT31;54397;47.506;19.158;2022-09-06T18:51:49;21.68;69.50
67572;SHT31;54397;47.506;19.158;2022-09-06T18:55:13;21.50;70.47
67572;SHT31;54397;47.506;19.158;2022-09-06T18:58:39;21.54;70.49
67572;SHT31;54397;47.506;19.158;2022-09-06T19:02:02;21.32;71.38
67572;SHT31;54397;47.506;19.158;2022-09-06T19:05:23;21.26;71.67
67572;SHT31;54397;47.506;19.158;2022-09-06T19:08:46;20.96;72.88
67572;SHT31;54397;47.506;19.158;2022-09-06T19:12:08;20.75;74.01
67572;SHT31;54397;47.506;19.158;2022-09-06T19:15:41;20.94;73.31
67572;SHT31;54397;47.506;19.158;2022-09-06T19:19:05;21.16;72.20
67572;SHT31;54397;47.506;19.158;2022-09-06T19:22:27;21.36;71.26
67572;SHT31;54397;47.506;19.158;2022-09-06T19:26:18;21.29;71.45
67572;SHT31;54397;47.506;19.158;2022-09-06T19:29:40;21.39;71.17
67572;SHT31;54397;47.506;19.158;2022-09-06T19:33:04;21.42;71.27
67572;SHT31;54397;47.506;19.158;2022-09-06T19:36:27;21.46;70.61
67572;SHT31;54397;47.506;19.158;2022-09-06T19:39:49;21.42;70.65
67572;SHT31;54397;47.506;19.158;2022-09-06T19:43:11;21.30;70.98
67572;SHT31;54397;47.506;19.158;2022-09-06T19:46:32;21.18;71.65
67572;SHT31;54397;47.506;19.158;2022-09-06T19:49:55;21.29;71.57
67572;SHT31;54397;47.506;19.158;2022-09-06T19:53:19;21.08;72.42
67572;SHT31;54397;47.506;19.158;2022-09-06T19:56:42;20.96;72.87
67572;SHT31;54397;47.506;19.158;2022-09-06T20:00:05;20.87;73.13
67572;SHT31;54397;47.506;19.158;2022-09-06T20:03:27;20.81;73.36
67572;SHT31;54397;47.506;19.158;2022-09-06T20:06:51;20.61;74.04
67572;SHT31;54397;47.506;19.158;2022-09-06T20:10:13;20.88;73.22
67572;SHT31;54397;47.506;19.158;2022-09-06T20:13:36;20.92;73.03
67572;SHT31;54397;47.506;19.158;2022-09-06T20:17:00;20.96;72.91
67572;SHT31;54397;47.506;19.158;2022-09-06T20:20:43;21.03;72.49
67572;SHT31;54397;47.506;19.158;2022-09-06T20:24:05;20.87;72.86
67572;SHT31;54397;47.506;19.158;2022-09-06T20:27:26;20.78;73.16
67572;SHT31;54397;47.506;19.158;2022-09-06T20:30:48;20.89;72.90
67572;SHT31;54397;47.506;19.158;2022-09-06T20:34:10;20.99;72.37
67572;SHT31;54397;47.506;19.158;2022-09-06T20:37:34;21.06;72.08
67572;SHT31;54397;47.506;19.158;2022-09-06T20:44:29;21.13;71.70
67572;SHT31;54397;47.506;19.158;2022-09-06T20:47:51;21.05;71.70
67572;SHT31;54397;47.506;19.158;2022-09-06T20:51:20;21.10;71.52
67572;SHT31;54397;47.506;19.158;2022-09-06T20:54:45;20.98;71.67
67572;SHT31;54397;47.506;19.158;2022-09-06T20:58:10;21.10;71.40
67572;SHT31;54397;47.506;19.158;2022-09-06T21:01:36;20.98;71.83
67572;SHT31;54397;47.506;19.158;2022-09-06T21:05:01;20.91;72.11
67572;SHT31;54397;47.506;19.158;2022-09-06T21:08:24;20.94;71.83
67572;SHT31;54397;47.506;19.158;2022-09-06T21:11:49;20.99;71.70
67572;SHT31;54397;47.506;19.158;2022-09-06T21:15:24;20.75;72.20
67572;SHT31;54397;47.506;19.158;2022-09-06T21:18:53;20.51;73.27
67572;SHT31;54397;47.506;19.158;2022-09-06T21:22:15;20.58;73.25
67572;SHT31;54397;47.506;19.158;2022-09-06T21:25:38;20.64;73.08
67572;SHT31;54397;47.506;19.158;2022-09-06T21:29:03;20.82;72.45
67572;SHT31;54397;47.506;19.158;2022-09-06T21:32:31;20.84;72.48
67572;SHT31;54397;47.506;19.158;2022-09-06T21:35:57;20.74;72.69
67572;SHT31;54397;47.506;19.158;2022-09-06T21:39:20;20.84;72.42
67572;SHT31;54397;47.506;19.158;2022-09-06T21:42:42;20.88;72.32
67572;SHT31;54397;47.506;19.158;2022-09-06T21:46:14;20.79;72.42
67572;SHT31;54397;47.506;19.158;2022-09-06T21:49:40;20.82;72.26
67572;SHT31;54397;47.506;19.158;2022-09-06T21:53:06;20.79;72.09
67572;SHT31;54397;47.506;19.158;2022-09-06T21:56:29;20.82;71.96
67572;SHT31;54397;47.506;19.158;2022-09-06T21:59:53;20.82;71.91
67572;SHT31;54397;47.506;19.158;2022-09-06T22:03:15;20.78;71.88
67572;SHT31;54397;47.506;19.158;2022-09-06T22:06:39;20.78;71.93
67572;SHT31;54397;47.506;19.158;2022-09-06T22:10:03;20.75;71.78
67572;SHT31;54397;47.506;19.158;2022-09-06T22:13:26;20.71;71.91
67572;SHT31;54397;47.506;19.158;2022-09-06T22:16:48;20.74;71.88
67572;SHT31;54397;47.506;19.158;2022-09-06T22:20:14;20.79;71.76
67572;SHT31;54397;47.506;19.158;2022-09-06T22:23:40;20.78;71.89
67572;SHT31;54397;47.506;19.158;2022-09-06T22:27:02;20.45;73.10
67572;SHT31;54397;47.506;19.158;2022-09-06T22:30:30;20.43;73.49
67572;SHT31;54397;47.506;19.158;2022-09-06T22:33:53;20.48;73.39
67572;SHT31;54397;47.506;19.158;2022-09-06T22:37:15;20.57;73.27
67572;SHT31;54397;47.506;19.158;2022-09-06T22:40:37;20.54;73.44
67572;SHT31;54397;47.506;19.158;2022-09-06T22:43:59;20.40;73.95
67572;SHT31;54397;47.506;19.158;2022-09-06T22:47:21;20.37;74.11
67572;SHT31;54397;47.506;19.158;2022-09-06T22:50:43;20.37;74.00
67572;SHT31;54397;47.506;19.158;2022-09-06T22:54:05;20.34;73.90